Time;durP1;ratioP1;P1;durP2;ratioP2;P2;SDS_P1;SDS_P2;PMS_P1;PMS_P2;Temp;Humidity;BMP_temperature;BMP_pressure;BME280_temperature;BME280_humidity;BME280_pressure;Samples;Min_cycle;Max_cycle;Signal;HPM_P1;HPM_P2
2021/07/07 00:00:20;;;;;;;5.05;3.87;;;;;;;19.31;66.78;99369.37;1655275;85;20986;-66
2021/07/07 00:02:49;;;;;;;4.65;4.12;;;;;;;19.27;66.81;99365.33;1655195;85;20934;-65
2021/07/07 00:05:18;;;;;;;5.33;4.08;;;;;;;19.22;66.86;99364.90;1628904;87;20935;-66
2021/07/07 00:07:46;;;;;;;5.05;3.77;;;;;;;19.18;66.90;99373.58;1654922;85;20970;-66
2021/07/07 00:10:17;;;;;;;7.47;4.00;;;;;;;19.16;66.99;99371.58;1652552;85;21019;-65
2021/07/07 00:12:47;;;;;;;4.47;4.08;;;;;;;19.12;67.01;99369.32;1665447;85;21458;-65
2021/07/07 00:15:19;;;;;;;5.33;4.10;;;;;;;19.06;67.03;99361.94;1657232;85;20934;-66
2021/07/07 00:17:47;;;;;;;4.58;4.08;;;;;;;19.03;67.07;99363.03;1636009;87;20966;-66
2021/07/07 00:20:16;;;;;;;4.90;3.80;;;;;;;18.99;67.13;99359.83;1630283;87;21037;-65
2021/07/07 00:22:42;;;;;;;4.20;3.80;;;;;;;18.96;67.21;99365.39;1625869;87;21196;-65
2021/07/07 00:25:09;;;;;;;4.40;4.00;;;;;;;18.92;67.26;99369.27;1629352;87;20951;-65
2021/07/07 00:27:36;;;;;;;4.37;3.90;;;;;;;18.89;67.30;99377.47;1628089;87;20990;-66
2021/07/07 00:30:06;;;;;;;6.03;4.03;;;;;;;18.86;67.40;99376.42;1628659;87;20940;-66
2021/07/07 00:32:32;;;;;;;3.92;3.62;;;;;;;18.83;67.47;99380.66;1647081;85;20963;-66
2021/07/07 00:34:59;;;;;;;3.98;3.60;;;;;;;18.76;67.70;99382.14;1646821;85;21581;-65
2021/07/07 00:37:26;;;;;;;5.87;3.90;;;;;;;18.76;67.70;99382.14;1646883;85;20982;-66
2021/07/07 00:39:52;;;;;;;5.00;3.87;;;;;;;18.73;67.60;99382.38;1662373;85;20982;-65
2021/07/07 00:42:19;;;;;;;5.33;3.85;;;;;;;18.70;67.72;99385.30;1651720;85;20925;-66
2021/07/07 00:44:45;;;;;;;5.08;3.85;;;;;;;18.65;67.71;99395.42;1663288;85;20947;-65
2021/07/07 00:47:12;;;;;;;5.15;3.90;;;;;;;18.62;67.82;99398.34;1666084;85;20980;-65
2021/07/07 00:49:41;;;;;;;5.40;4.30;;;;;;;18.59;67.85;99401.25;1641246;86;21457;-66
2021/07/07 00:52:08;;;;;;;5.08;4.17;;;;;;;18.54;67.90;99401.17;1658814;85;20967;-66
2021/07/07 00:54:36;;;;;;;8.25;4.30;;;;;;;18.53;67.99;99398.16;1651064;85;21461;-65
2021/07/07 00:57:03;;;;;;;7.33;4.10;;;;;;;18.52;68.04;99405.74;1653988;85;21546;-66
2021/07/07 00:59:30;;;;;;;4.53;4.00;;;;;;;18.52;68.09;99403.59;1630539;85;21093;-65
2021/07/07 01:01:57;;;;;;;7.47;4.03;;;;;;;18.50;68.15;99410.80;1658827;85;20864;-65
2021/07/07 01:04:24;;;;;;;4.97;4.15;;;;;;;18.48;68.21;99408.28;1658054;85;20950;-66
2021/07/07 01:06:50;;;;;;;9.55;3.83;;;;;;;18.43;68.24;99406.53;1651091;85;21458;-66
2021/07/07 01:09:17;;;;;;;5.83;4.15;;;;;;;18.41;68.32;99407.14;1629660;87;21640;-65
2021/07/07 01:11:44;;;;;;;4.78;4.35;;;;;;;18.39;68.41;99406.42;1659383;85;21382;-65
2021/07/07 01:14:10;;;;;;;5.13;4.20;;;;;;;18.33;68.49;99405.63;1656738;85;20958;-66
2021/07/07 01:16:43;;;;;;;4.30;3.90;;;;;;;18.21;68.41;99384.22;1655576;85;21223;-65
2021/07/07 01:19:14;;;;;;;4.70;3.65;;;;;;;18.21;68.41;99384.22;1660894;85;20963;-66
2021/07/07 01:21:47;;;;;;;4.40;3.90;;;;;;;18.31;68.65;99414.16;1650974;85;20927;-65
2021/07/07 01:24:16;;;;;;;7.87;4.05;;;;;;;18.31;68.70;99415.48;1650766;85;21216;-65
2021/07/07 01:26:43;;;;;;;4.80;3.90;;;;;;;18.29;68.74;99402.91;1656996;85;20959;-65
2021/07/07 01:29:11;;;;;;;4.55;4.05;;;;;;;18.29;68.80;99397.63;1653478;85;21486;-65
2021/07/07 01:31:38;;;;;;;;;;;;;;;18.29;68.80;99386.56;1656626;85;21534;-65
2021/07/07 01:34:21;;;;;;;9.88;3.92;;;;;;;18.28;68.98;99388.00;1650089;85;27250;-65
2021/07/07 01:36:48;;;;;;;3.67;3.37;;;;;;;18.25;68.90;99389.58;1640905;86;21764;-65
2021/07/07 01:39:15;;;;;;;5.58;3.70;;;;;;;18.24;69.05;99386.11;1634237;87;20972;-66
2021/07/07 01:41:42;;;;;;;4.42;3.50;;;;;;;18.24;69.03;99395.84;1630739;87;20980;-65
2021/07/07 01:44:08;;;;;;;4.87;3.58;;;;;;;18.25;69.06;99393.55;1637719;87;21505;-65
2021/07/07 01:46:35;;;;;;;4.60;3.95;;;;;;;18.13;69.11;99376.92;1637515;87;20961;-65
2021/07/07 01:49:03;;;;;;;4.47;3.67;;;;;;;18.24;69.14;99399.31;1597998;88;21028;-65
2021/07/07 01:51:30;;;;;;;5.10;3.80;;;;;;;18.25;69.20;99404.11;1642249;86;20960;-65
2021/07/07 01:53:56;;;;;;;6.53;4.03;;;;;;;18.25;69.22;99408.08;1645279;85;20931;-65
2021/07/07 01:56:23;;;;;;;5.72;3.87;;;;;;;18.25;69.22;99408.08;1656744;85;21028;-65
2021/07/07 01:58:50;;;;;;;7.72;3.77;;;;;;;18.27;69.29;99410.12;1657538;85;20963;-66
2021/07/07 02:01:16;;;;;;;6.10;3.80;;;;;;;18.24;69.29;99413.02;1654159;85;21085;-66
2021/07/07 02:03:43;;;;;;;6.07;3.70;;;;;;;18.23;69.37;99419.25;1656320;85;20948;-66
2021/07/07 02:06:09;;;;;;;4.72;3.67;;;;;;;18.23;69.43;99411.33;1656814;85;20976;-65
2021/07/07 02:08:36;;;;;;;5.30;3.87;;;;;;;18.23;69.47;99413.97;1657256;86;21426;-65
2021/07/07 02:11:03;;;;;;;5.87;4.25;;;;;;;18.25;69.53;99417.33;1658573;85;21561;-66
2021/07/07 02:13:29;;;;;;;5.33;4.62;;;;;;;18.26;69.66;99411.06;1679075;84;21052;-65
2021/07/07 02:15:56;;;;;;;6.50;4.40;;;;;;;18.27;69.65;99403.02;1674910;84;20931;-65
2021/07/07 02:18:23;;;;;;;11.97;4.87;;;;;;;18.30;69.68;99404.57;1691002;84;21017;-65
2021/07/07 02:20:49;;;;;;;5.33;4.83;;;;;;;18.34;69.69;99400.69;1689550;84;20958;-65
2021/07/07 02:23:17;;;;;;;8.53;4.80;;;;;;;18.36;69.71;99405.86;1693117;84;21222;-65
2021/07/07 02:25:44;;;;;;;7.75;4.70;;;;;;;18.39;69.74;99409.56;1692728;84;22727;-65
2021/07/07 02:28:12;;;;;;;5.00;4.58;;;;;;;18.41;69.74;99412.42;1688974;84;20928;-66
2021/07/07 02:30:40;;;;;;;7.20;4.70;;;;;;;18.45;69.83;99408.54;1666536;84;20915;-65
2021/07/07 02:33:09;;;;;;;6.72;4.67;;;;;;;18.49;69.81;99406.01;1668244;85;20980;-65
2021/07/07 02:35:39;;;;;;;6.97;4.62;;;;;;;18.54;69.82;99410.42;1659447;85;21007;-65
2021/07/07 02:38:08;;;;;;;5.10;4.50;;;;;;;18.59;69.85;99408.69;1659708;85;21410;-65
2021/07/07 02:40:36;;;;;;;10.48;4.97;;;;;;;18.64;69.88;99405.17;1693425;84;20931;-65
2021/07/07 02:43:09;;;;;;;4.90;4.08;;;;;;;18.70;69.88;99409.09;1689193;84;20974;-65
2021/07/07 02:45:35;;;;;;;5.33;4.15;;;;;;;18.76;69.87;99412.56;1670975;84;21496;-66
2021/07/07 02:48:03;;;;;;;5.58;4.50;;;;;;;18.83;69.96;99411.08;1692219;84;20918;-66
2021/07/07 02:50:30;;;;;;;10.30;5.05;;;;;;;18.89;69.92;99413.19;1690090;84;21079;-65
2021/07/07 02:52:57;;;;;;;5.00;4.37;;;;;;;18.99;70.00;99407.45;1686800;84;20950;-65
2021/07/07 02:55:25;;;;;;;5.17;4.67;;;;;;;19.34;70.17;99411.45;1664866;84;20945;-65
2021/07/07 02:57:59;;;;;;;6.60;5.33;;;;;;;19.75;70.02;99416.21;1626786;87;20940;-66
2021/07/07 03:00:37;;;;;;;5.05;4.55;;;;;;;20.03;69.74;99417.69;1609719;88;20910;-66
2021/07/07 03:03:10;;;;;;;8.20;5.08;;;;;;;20.14;69.63;99420.19;1597903;88;21477;-66
2021/07/07 03:05:41;;;;;;;7.17;4.92;;;;;;;20.42;69.61;99417.64;1655701;85;21035;-66
2021/07/07 03:08:09;;;;;;;7.30;4.33;;;;;;;20.71;69.63;99417.08;1630698;87;20958;-66
2021/07/07 03:10:37;;;;;;;5.45;4.95;;;;;;;21.08;69.25;99410.92;1652565;85;20923;-66
2021/07/07 03:13:04;;;;;;;5.55;4.95;;;;;;;21.12;68.63;99412.31;1642418;87;21472;-66
2021/07/07 03:15:32;;;;;;;8.20;5.15;;;;;;;20.96;68.70;99416.09;1649425;85;21449;-66
2021/07/07 03:17:59;;;;;;;5.12;4.62;;;;;;;20.87;68.72;99414.31;1653959;85;20939;-66
2021/07/07 03:20:26;;;;;;;5.25;4.75;;;;;;;20.77;68.71;99413.84;1635937;87;24841;-66
2021/07/07 03:22:53;;;;;;;5.85;4.72;;;;;;;20.73;68.81;99417.78;1652106;85;21509;-66
2021/07/07 03:25:20;;;;;;;7.92;5.33;;;;;;;20.73;68.83;99415.63;1647677;85;20934;-66
2021/07/07 03:27:46;;;;;;;5.37;4.55;;;;;;;20.75;68.85;99419.81;1649473;85;21109;-66
2021/07/07 03:30:14;;;;;;;9.25;4.83;;;;;;;20.76;68.72;99417.48;1587563;88;21492;-65
2021/07/07 03:32:40;;;;;;;4.90;4.42;;;;;;;20.79;68.64;99418.52;1653141;84;20892;-66
2021/07/07 03:35:08;;;;;;;7.45;4.15;;;;;;;20.82;68.60;99420.05;1650864;85;20963;-66
2021/07/07 03:37:35;;;;;;;9.43;5.17;;;;;;;20.89;68.59;99426.93;1653335;85;20958;-65
2021/07/07 03:40:05;;;;;;;9.20;5.08;;;;;;;20.98;68.49;99422.09;1653592;85;21059;-66
2021/07/07 03:42:32;;;;;;;8.88;5.90;;;;;;;21.11;68.60;99415.93;1647649;85;21483;-66
2021/07/07 03:44:59;;;;;;;;;;;;;;;21.27;68.37;99417.13;1660158;85;20956;-66
2021/07/07 03:47:26;;;;;;;8.30;5.33;;;;;;;21.39;68.25;99417.28;1655211;85;20459;-66
2021/07/07 03:49:52;;;;;;;;;;;;;;;21.52;68.25;99421.75;1656811;85;21509;-66
2021/07/07 03:52:19;;;;;;;7.58;4.78;;;;;;;21.67;68.00;99414.92;1654521;85;21062;-66
2021/07/07 03:54:45;;;;;;;7.58;4.85;;;;;;;21.81;68.10;99415.38;1661426;84;20949;-66
2021/07/07 03:57:12;;;;;;;9.60;5.37;;;;;;;22.12;68.33;99411.36;1662461;85;21004;-66
2021/07/07 03:59:39;;;;;;;6.28;4.62;;;;;;;23.17;68.26;99418.02;1663302;85;21359;-66
2021/07/07 04:02:05;;;;;;;7.05;4.37;;;;;;;25.87;66.66;99420.31;1658939;85;20995;-66
2021/07/07 04:04:32;;;;;;;9.28;4.40;;;;;;;25.87;66.66;99420.31;1665246;84;21815;-66
2021/07/07 04:06:59;;;;;;;20.62;5.80;;;;;;;25.92;65.43;99426.47;1660265;85;22185;-66
2021/07/07 04:09:28;;;;;;;11.43;4.75;;;;;;;25.49;65.45;99426.89;1669746;85;21512;-66
2021/07/07 04:11:55;;;;;;;14.38;5.03;;;;;;;25.07;64.96;99424.05;1670465;85;20980;-66
2021/07/07 04:14:26;;;;;;;21.57;6.15;;;;;;;24.64;64.97;99431.51;1669224;84;20984;-66
2021/07/07 04:16:57;;;;;;;32.95;5.92;;;;;;;24.26;64.80;99432.54;1654355;85;21065;-64
2021/07/07 04:19:26;;;;;;;21.02;5.53;;;;;;;23.96;64.75;99431.88;1660464;85;20901;-63
2021/07/07 04:21:53;;;;;;;15.63;5.67;;;;;;;23.72;64.89;99428.16;1661005;85;20893;-64
2021/07/07 04:24:21;;;;;;;12.10;5.22;;;;;;;23.73;65.09;99432.52;1657471;85;21506;-64
2021/07/07 04:26:48;;;;;;;31.33;6.83;;;;;;;24.48;65.61;99432.90;1660388;85;21498;-64
2021/07/07 04:29:15;;;;;;;84.20;8.70;;;;;;;25.63;65.01;99438.16;1657661;85;21883;-64
2021/07/07 04:31:41;;;;;;;;;;;;;;;26.87;65.08;99436.14;1659362;85;21639;-64
2021/07/07 04:34:08;;;;;;;;;;;;;;;27.80;63.32;99434.64;1638785;86;20130;-65
2021/07/07 04:36:35;;;;;;;14.18;4.85;;;;;;;28.59;62.79;99440.40;1661033;85;20118;-64
2021/07/07 04:39:05;;;;;;;16.17;4.72;;;;;;;29.39;62.10;99443.03;1664675;84;20964;-64
2021/07/07 04:41:32;;;;;;;26.12;4.83;;;;;;;30.04;61.99;99446.11;1659317;85;21897;-64
2021/07/07 04:43:59;;;;;;;15.30;4.10;;;;;;;30.80;61.44;99440.84;1694765;83;20966;-64
2021/07/07 04:46:25;;;;;;;21.12;3.92;;;;;;;31.46;60.49;99442.52;1667031;83;20893;-65
2021/07/07 04:48:52;;;;;;;20.75;4.35;;;;;;;32.14;59.57;99433.80;1676822;84;20971;-65
2021/07/07 04:51:19;;;;;;;29.67;5.12;;;;;;;32.55;58.88;99433.80;1657103;84;20980;-65
2021/07/07 04:53:45;;;;;;;28.95;4.78;;;;;;;32.99;58.11;99438.61;1660854;85;21054;-64
2021/07/07 04:56:12;;;;;;;20.82;4.10;;;;;;;33.64;58.21;99442.96;1627186;86;20953;-65
2021/07/07 04:58:41;;;;;;;11.80;3.77;;;;;;;34.24;57.04;99434.47;1631679;87;21006;-65
2021/07/07 05:01:09;;;;;;;25.30;4.53;;;;;;;34.91;55.52;99428.16;1650257;85;20942;-65
2021/07/07 05:03:36;;;;;;;6.85;3.37;;;;;;;34.91;55.52;99428.16;1662479;85;20978;-65
2021/07/07 05:06:03;;;;;;;9.98;4.00;;;;;;;35.14;53.94;99441.41;1650113;85;21050;-65
2021/07/07 05:08:29;;;;;;;11.38;4.17;;;;;;;35.24;53.28;99440.27;1665829;84;20960;-65
2021/07/07 05:10:56;;;;;;;10.10;3.72;;;;;;;35.40;52.22;99441.38;1651905;85;20891;-65
2021/07/07 05:13:24;;;;;;;9.38;4.47;;;;;;;35.44;51.76;99449.89;1658358;85;20938;-65
2021/07/07 05:15:52;;;;;;;7.65;2.98;;;;;;;35.68;51.13;99460.95;1652191;85;21002;-65
2021/07/07 05:18:20;;;;;;;24.80;4.67;;;;;;;35.86;50.29;99464.83;1664678;85;21041;-65
2021/07/07 05:20:47;;;;;;;12.75;3.45;;;;;;;35.99;49.83;99465.57;1663085;85;20962;-65
2021/07/07 05:23:17;;;;;;;4.78;3.27;;;;;;;36.26;48.76;99473.95;1653713;85;21065;-66
2021/07/07 05:25:45;;;;;;;9.75;3.80;;;;;;;36.43;48.66;99464.43;1660297;85;20943;-65
2021/07/07 05:28:13;;;;;;;31.10;5.00;;;;;;;36.70;48.07;99472.22;1659345;85;20987;-65
2021/07/07 05:30:41;;;;;;;18.35;4.20;;;;;;;36.88;47.18;99471.09;1648565;85;21053;-65
2021/07/07 05:33:09;;;;;;;14.43;3.12;;;;;;;36.58;46.15;99470.66;1626208;87;20888;-65
2021/07/07 05:35:38;;;;;;;9.08;3.25;;;;;;;36.37;45.40;99483.09;1627719;87;20979;-65
2021/07/07 05:38:06;;;;;;;6.37;3.70;;;;;;;36.03;45.24;99479.79;1648602;85;20915;-65
2021/07/07 05:40:34;;;;;;;4.33;3.25;;;;;;;35.71;44.81;99487.65;1633573;87;20974;-65
2021/07/07 05:43:01;;;;;;;31.60;4.95;;;;;;;35.53;44.39;99491.86;1664985;85;20984;-65
2021/07/07 05:45:28;;;;;;;14.50;4.20;;;;;;;35.26;44.05;99491.58;1662731;85;21473;-65
2021/07/07 05:47:56;;;;;;;23.15;4.72;;;;;;;35.06;43.56;99500.11;1663926;85;21459;-65
2021/07/07 05:50:33;;;;;;;22.07;3.98;;;;;;;34.79;42.98;99506.02;1662451;85;20936;-65
2021/07/07 05:52:59;;;;;;;25.55;4.30;;;;;;;33.63;41.96;99517.09;1660932;85;21470;-65
2021/07/07 05:55:26;;;;;;;24.15;4.17;;;;;;;33.63;41.96;99517.09;1652080;85;21053;-65
2021/07/07 05:57:54;;;;;;;9.98;3.27;;;;;;;32.87;42.08;99521.55;1652435;85;20964;-65
2021/07/07 06:00:24;;;;;;;7.10;3.33;;;;;;;32.56;42.24;99519.22;1651936;85;21450;-65
2021/07/07 06:02:52;;;;;;;20.90;4.00;;;;;;;32.22;41.67;99532.12;1622851;87;21446;-65
2021/07/07 06:05:20;;;;;;;9.23;3.40;;;;;;;31.83;42.41;99533.98;1626838;87;20955;-64
2021/07/07 06:07:47;;;;;;;7.70;3.12;;;;;;;31.75;42.31;99534.22;1630404;87;21272;-65
2021/07/07 06:10:18;;;;;;;12.37;3.35;;;;;;;31.48;41.57;99540.77;1662563;85;20945;-65
2021/07/07 06:12:45;;;;;;;22.95;3.60;;;;;;;31.02;41.82;99547.08;1650848;85;20927;-66
2021/07/07 06:15:14;;;;;;;15.32;3.42;;;;;;;30.64;41.82;99551.23;1651128;85;20985;-65
2021/07/07 06:17:43;;;;;;;28.90;4.17;;;;;;;30.83;42.64;99544.71;1660934;85;20956;-65
2021/07/07 06:20:12;;;;;;;19.70;3.20;;;;;;;31.40;42.65;99553.47;1662233;85;21069;-65
2021/07/07 06:22:40;;;;;;;6.75;2.72;;;;;;;31.70;42.13;99555.62;1665348;84;20970;-65
2021/07/07 06:25:09;;;;;;;7.00;2.55;;;;;;;31.78;41.83;99558.08;1663795;85;20948;-65
2021/07/07 06:27:37;;;;;;;7.67;2.80;;;;;;;30.89;40.55;99554.16;1660371;85;21837;-65
2021/07/07 06:30:06;;;;;;;5.83;2.45;;;;;;;29.97;41.12;99558.34;1662375;85;21493;-64
2021/07/07 06:32:33;;;;;;;6.97;2.30;;;;;;;29.83;42.05;99557.98;1656033;85;21103;-65
2021/07/07 06:35:02;;;;;;;8.50;2.60;;;;;;;30.16;42.18;99563.97;1665299;84;21004;-66
2021/07/07 06:37:30;;;;;;;11.45;2.65;;;;;;;30.52;42.31;99556.38;1648214;85;20988;-65
2021/07/07 06:39:56;;;;;;;2.17;1.87;;;;;;;30.79;42.00;99557.75;1664804;84;20908;-65
2021/07/07 06:42:23;;;;;;;4.78;1.87;;;;;;;30.45;40.95;99555.56;1664825;84;20944;-65
2021/07/07 06:44:50;;;;;;;6.78;2.00;;;;;;;29.64;41.42;99559.04;1663076;85;20986;-66
2021/07/07 06:47:16;;;;;;;7.83;2.50;;;;;;;29.35;42.16;99564.64;1665865;84;20921;-68
2021/07/07 06:49:43;;;;;;;4.47;2.22;;;;;;;29.54;42.53;99558.53;1662790;85;21455;-65
2021/07/07 06:52:10;;;;;;;5.20;1.90;;;;;;;29.37;42.20;99559.90;1665072;85;20898;-65
2021/07/07 06:54:42;;;;;;;6.15;2.12;;;;;;;29.44;43.01;99568.33;1664912;84;20962;-64
2021/07/07 06:57:08;;;;;;;6.40;2.00;;;;;;;29.27;42.25;99568.83;1672138;83;21120;-65
2021/07/07 06:59:35;;;;;;;3.95;2.17;;;;;;;29.29;42.60;99566.78;1674393;84;20904;-65
2021/07/07 07:02:03;;;;;;;4.35;1.75;;;;;;;29.23;43.25;99566.53;1657810;85;21568;-65
2021/07/07 07:04:31;;;;;;;5.72;1.70;;;;;;;29.26;43.44;99571.21;1662537;85;20980;-65
2021/07/07 07:06:58;;;;;;;4.05;1.60;;;;;;;28.74;43.32;99568.75;1663903;85;20883;-65
2021/07/07 07:09:27;;;;;;;4.05;1.85;;;;;;;28.74;43.50;99574.13;1662738;85;21512;-66
2021/07/07 07:11:55;;;;;;;4.10;1.72;;;;;;;28.54;43.78;99570.44;1660704;85;21456;-64
2021/07/07 07:14:23;;;;;;;9.05;2.05;;;;;;;28.52;43.84;99568.45;1640698;86;20974;-64
2021/07/07 07:16:50;;;;;;;5.08;1.72;;;;;;;28.76;44.57;99569.39;1638498;86;20907;-65
2021/07/07 07:19:16;;;;;;;3.25;1.32;;;;;;;28.90;44.09;99566.79;1670234;85;20987;-65
2021/07/07 07:21:44;;;;;;;4.50;1.72;;;;;;;29.21;44.54;99572.64;1659303;85;21005;-64
2021/07/07 07:24:12;;;;;;;12.25;1.90;;;;;;;29.74;44.99;99560.00;1653562;85;20973;-64
2021/07/07 07:26:39;;;;;;;8.58;2.10;;;;;;;30.03;44.17;99572.86;1661879;85;20868;-64
2021/07/07 07:29:06;;;;;;;7.65;1.62;;;;;;;29.43;43.41;99571.20;1635865;86;20911;-64
2021/07/07 07:31:34;;;;;;;7.95;1.75;;;;;;;29.25;44.30;99578.97;1662550;85;20922;-64
2021/07/07 07:34:01;;;;;;;1.70;1.15;;;;;;;29.12;44.59;99580.52;1660353;85;21067;-64
2021/07/07 07:36:28;;;;;;;3.72;1.50;;;;;;;28.88;44.58;99582.30;1675123;84;21496;-64
2021/07/07 07:39:00;;;;;;;5.10;1.90;;;;;;;28.69;44.78;99585.95;1673779;84;21537;-64
2021/07/07 07:41:30;;;;;;;8.00;2.12;;;;;;;28.32;45.46;99583.82;1648754;85;20970;-64
2021/07/07 07:44:03;;;;;;;7.22;1.67;;;;;;;27.87;45.26;99576.41;1657528;85;20888;-64
2021/07/07 07:46:30;;;;;;;3.22;2.10;;;;;;;27.55;45.52;99586.16;1673556;84;21013;-64
2021/07/07 07:48:59;;;;;;;6.20;1.98;;;;;;;27.42;46.08;99591.67;1692676;83;20986;-64
2021/07/07 07:51:26;;;;;;;6.03;2.15;;;;;;;27.37;46.24;99596.75;1688775;83;20977;-65
2021/07/07 07:53:52;;;;;;;12.25;2.70;;;;;;;27.20;47.08;99589.91;1694883;83;21505;-66
2021/07/07 07:56:20;;;;;;;7.20;2.17;;;;;;;27.58;47.39;99592.48;1693512;83;20931;-66
2021/07/07 07:58:47;;;;;;;3.47;1.57;;;;;;;27.68;47.01;99599.75;1683602;84;21072;-65
2021/07/07 08:01:16;;;;;;;7.42;1.90;;;;;;;27.81;47.65;99602.65;1683475;84;20923;-66
2021/07/07 08:03:43;;;;;;;8.13;1.70;;;;;;;27.53;47.41;99608.30;1653205;84;20942;-66
2021/07/07 08:06:11;;;;;;;3.83;1.60;;;;;;;27.42;48.09;99605.08;1682057;84;20936;-66
2021/07/07 08:08:39;;;;;;;4.20;1.50;;;;;;;27.61;47.64;99604.19;1674173;84;20992;-66
2021/07/07 08:11:17;;;;;;;6.85;1.32;;;;;;;27.31;47.68;99598.84;1676933;84;20997;-66
2021/07/07 08:13:44;;;;;;;4.65;1.30;;;;;;;27.24;48.05;99600.56;1675238;84;20954;-66
2021/07/07 08:16:11;;;;;;;2.72;1.40;;;;;;;27.33;48.36;99610.19;1681377;84;20922;-66
2021/07/07 08:18:37;;;;;;;;;;;;;;;27.22;48.14;99611.97;1677636;84;21473;-65
2021/07/07 08:21:04;;;;;;;8.50;1.92;;;;;;;27.19;49.02;99616.36;1678518;84;20116;-65
2021/07/07 08:23:31;;;;;;;2.95;1.32;;;;;;;27.37;48.88;99610.67;1652735;84;21879;-65
2021/07/07 08:25:58;;;;;;;1.25;1.15;;;;;;;27.58;48.79;99611.27;1684897;84;21612;-65
2021/07/07 08:28:25;;;;;;;3.30;1.42;;;;;;;27.58;48.84;99612.09;1682256;84;21453;-65
2021/07/07 08:30:52;;;;;;;2.27;1.47;;;;;;;27.51;48.81;99618.40;1680367;84;21451;-65
2021/07/07 08:33:19;;;;;;;2.35;1.20;;;;;;;27.77;49.33;99622.77;1682317;84;21045;-66
2021/07/07 08:35:46;;;;;;;4.47;1.80;;;;;;;28.17;49.06;99623.28;1679501;84;21056;-66
2021/07/07 08:38:12;;;;;;;3.77;1.42;;;;;;;28.17;48.67;99617.92;1682046;84;20916;-66
2021/07/07 08:40:39;;;;;;;;;;;;;;;28.01;48.34;99618.98;1682457;84;21473;-66
2021/07/07 08:43:05;;;;;;;;;;;;;;;27.63;48.70;99626.30;1687525;84;20438;-66
2021/07/07 08:45:33;;;;;;;;;;;;;;;27.48;49.16;99617.43;1686351;84;20115;-65
2021/07/07 08:48:02;;;;;;;2.85;1.60;;;;;;;27.47;49.30;99621.11;1684145;84;20994;-66
2021/07/07 08:50:34;;;;;;;4.15;1.35;;;;;;;27.37;49.30;99622.22;1680246;84;20980;-66
2021/07/07 08:53:04;;;;;;;3.47;1.60;;;;;;;27.19;49.73;99628.42;1683643;84;20967;-66
2021/07/07 08:55:32;;;;;;;2.50;1.45;;;;;;;27.07;49.70;99625.84;1681777;84;20946;-67
2021/07/07 08:58:00;;;;;;;6.70;1.50;;;;;;;27.26;50.11;99628.03;1678620;84;20958;-66
2021/07/07 09:00:38;;;;;;;4.00;1.30;;;;;;;27.33;49.96;99631.62;1684698;84;21113;-66
2021/07/07 09:03:14;;;;;;;5.67;1.30;;;;;;;27.07;49.87;99635.22;1684672;84;21406;-66
2021/07/07 09:06:00;;;;;;;;;;;;;;;27.18;50.58;99644.19;1684668;84;20938;-67
2021/07/07 09:08:37;;;;;;;4.15;1.05;;;;;;;27.56;50.88;99646.81;1682723;84;20119;-66
2021/07/07 09:11:27;;;;;;;3.58;1.25;;;;;;;27.79;49.92;99648.09;1686636;84;20931;-67
2021/07/07 09:14:14;;;;;;;3.50;1.35;;;;;;;27.92;50.35;99648.78;1682986;84;21016;-66
2021/07/07 09:16:47;;;;;;;2.67;1.50;;;;;;;28.01;50.19;99649.02;1681173;84;20963;-67
2021/07/07 09:19:19;;;;;;;4.12;1.45;;;;;;;27.82;49.83;99649.08;1680566;84;21800;-66
2021/07/07 09:21:53;;;;;;;2.87;1.20;;;;;;;27.60;49.87;99652.14;1678484;83;20899;-66
2021/07/07 09:24:24;;;;;;;4.25;1.30;;;;;;;27.60;50.02;99653.48;1682890;84;20927;-67
2021/07/07 09:27:05;;;;;;;2.20;1.02;;;;;;;27.79;50.66;99661.02;1681233;84;21528;-67
2021/07/07 09:29:42;;;;;;;2.02;1.27;;;;;;;27.85;50.15;99666.97;1684692;84;20932;-66
2021/07/07 09:32:19;;;;;;;3.27;1.20;;;;;;;27.51;50.13;99668.84;1677303;84;21398;-67
2021/07/07 09:34:51;;;;;;;2.37;1.22;;;;;;;27.70;50.10;99671.97;1680982;84;20924;-66
2021/07/07 09:37:35;;;;;;;4.72;1.10;;;;;;;27.79;50.04;99674.42;1684536;84;20986;-66
2021/07/07 09:39:59;;;;;;;3.15;1.27;;;;;;;27.73;50.43;99672.46;1680848;84;21082;-66
2021/07/07 09:42:33;;;;;;;3.72;1.30;;;;;;;27.87;49.89;99668.97;1682754;84;21520;-67
2021/07/07 09:45:04;;;;;;;1.45;1.10;;;;;;;27.95;50.41;99667.19;1681449;84;20995;-66
2021/07/07 09:47:31;;;;;;;6.25;1.50;;;;;;;28.03;50.23;99669.77;1678007;84;20914;-66
2021/07/07 09:49:58;;;;;;;5.80;1.47;;;;;;;27.45;49.64;99667.72;1684203;84;20966;-67
2021/07/07 09:52:29;;;;;;;3.08;1.20;;;;;;;27.05;50.75;99670.73;1682859;84;21003;-66
2021/07/07 09:55:01;;;;;;;4.35;1.20;;;;;;;27.28;50.96;99672.92;1682939;84;20978;-65
2021/07/07 09:57:27;;;;;;;3.87;1.30;;;;;;;27.68;51.20;99666.30;1672697;84;20954;-66
2021/07/07 09:59:54;;;;;;;4.87;1.20;;;;;;;27.99;50.78;99668.50;1660163;85;20864;-66
2021/07/07 10:02:20;;;;;;;;;;;;;;;28.03;50.09;99669.77;1642290;86;21476;-66
2021/07/07 10:04:59;;;;;;;;;;;;;;;28.06;50.14;99664.89;1659625;85;21126;-69
2021/07/07 10:07:38;;;;;;;4.33;1.27;;;;;;;28.19;50.67;99672.25;1660798;85;20392;-67
2021/07/07 10:10:08;;;;;;;5.17;1.27;;;;;;;28.47;50.77;99673.75;1641155;85;20993;-67
2021/07/07 10:12:34;;;;;;;2.33;1.05;;;;;;;28.61;50.26;99668.02;1639428;86;20978;-66
2021/07/07 10:15:01;;;;;;;;;;;;;;;28.74;50.13;99672.70;1647853;86;20958;-67
2021/07/07 10:17:28;;;;;;;4.03;1.20;;;;;;;28.89;50.02;99678.00;1671379;84;21051;-66
2021/07/07 10:19:56;;;;;;;;;;;;;;;29.01;50.09;99673.77;1662388;85;20967;-64
2021/07/07 10:22:22;;;;;;;8.90;1.70;;;;;;;28.81;48.56;99672.75;1658372;84;20176;-63
2021/07/07 10:24:49;;;;;;;2.37;1.10;;;;;;;28.63;49.53;99676.72;1664105;85;20896;-63
2021/07/07 10:27:20;;;;;;;2.60;1.50;;;;;;;28.60;49.21;99678.45;1635097;85;20927;-64
2021/07/07 10:29:47;;;;;;;3.55;1.10;;;;;;;28.46;49.43;99680.67;1645139;85;21117;-64
2021/07/07 10:32:16;;;;;;;5.42;1.10;;;;;;;28.39;49.47;99677.03;1661432;85;20934;-64
2021/07/07 10:34:43;;;;;;;3.77;1.10;;;;;;;28.49;49.28;99670.89;1660299;85;20931;-64
2021/07/07 10:37:10;;;;;;;1.87;1.00;;;;;;;28.36;49.27;99674.73;1640171;85;20950;-64
2021/07/07 10:39:38;;;;;;;4.22;1.12;;;;;;;28.28;49.08;99668.44;1665302;85;20960;-64
2021/07/07 10:42:07;;;;;;;7.53;1.22;;;;;;;28.00;48.85;99672.84;1664505;85;21068;-63
2021/07/07 10:44:43;;;;;;;1.37;1.27;;;;;;;27.98;49.39;99677.55;1656851;85;20962;-64
2021/07/07 10:47:12;;;;;;;1.95;1.20;;;;;;;27.87;48.69;99675.67;1663247;85;21365;-65
2021/07/07 10:49:45;;;;;;;3.95;1.02;;;;;;;27.72;49.25;99682.84;1668886;85;21544;-64
2021/07/07 10:52:20;;;;;;;3.00;1.12;;;;;;;27.80;49.70;99678.77;1667184;85;21016;-64
2021/07/07 10:55:03;;;;;;;2.62;1.30;;;;;;;27.88;49.29;99667.11;1640130;86;21333;-64
2021/07/07 10:57:35;;;;;;;2.55;1.07;;;;;;;28.14;49.40;99673.32;1665585;84;21010;-64
2021/07/07 11:00:22;;;;;;;6.12;1.10;;;;;;;28.28;49.67;99679.17;1697412;83;21497;-64
2021/07/07 11:02:49;;;;;;;2.67;1.00;;;;;;;28.27;49.07;99680.20;1685057;83;20887;-65
2021/07/07 11:05:25;;;;;;;2.00;0.95;;;;;;;27.89;49.11;99677.64;1679880;84;20977;-64
2021/07/07 11:07:56;;;;;;;3.40;1.10;;;;;;;27.53;49.26;99676.67;1665467;85;21501;-64
2021/07/07 11:10:23;;;;;;;9.48;1.45;;;;;;;27.16;49.31;99679.70;1688997;84;20918;-69
2021/07/07 11:13:01;;;;;;;3.80;0.70;;;;;;;26.85;49.68;99689.14;1686583;84;20907;-63
2021/07/07 11:15:28;;;;;;;2.33;0.80;;;;;;;26.67;49.90;99692.12;1689330;84;21001;-63
2021/07/07 11:18:00;;;;;;;2.05;0.95;;;;;;;26.48;50.21;99682.14;1684626;84;20967;-64
2021/07/07 11:20:38;;;;;;;1.87;0.80;;;;;;;26.29;50.27;99686.59;1685494;84;21740;-63
2021/07/07 11:23:11;;;;;;;3.60;0.90;;;;;;;26.14;50.59;99688.36;1688955;84;20950;-63
2021/07/07 11:25:40;;;;;;;1.67;0.78;;;;;;;25.92;50.63;99696.12;1689336;84;21478;-63
2021/07/07 11:28:16;;;;;;;2.62;0.80;;;;;;;25.64;51.31;99685.80;1662728;85;20943;-63
2021/07/07 11:30:41;;;;;;;2.55;0.90;;;;;;;25.49;51.36;99687.51;1662092;85;21001;-63
2021/07/07 11:33:08;;;;;;;1.98;1.07;;;;;;;25.16;51.73;99703.56;1693160;84;22272;-63
2021/07/07 11:35:40;;;;;;;2.95;1.00;;;;;;;24.96;52.37;99703.53;1693248;84;20927;-63
2021/07/07 11:38:12;;;;;;;1.57;0.90;;;;;;;24.67;53.25;99699.96;1671303;84;20927;-66
2021/07/07 11:40:41;;;;;;;2.27;0.90;;;;;;;24.38;53.50;99697.70;1666051;84;20902;-66
2021/07/07 11:43:18;;;;;;;2.22;1.20;;;;;;;24.12;54.16;99709.28;1691745;84;20962;-66